sensor_id;sensor_type;location;lat;lon;timestamp;P1;durP1;ratioP1;P2;durP2;ratioP2
51475;SDS011;37554;50.362;7.568;2023-04-01T00:01:45;1.65;;;0.50;;
51475;SDS011;37554;50.362;7.568;2023-04-01T00:04:11;2.30;;;0.47;;
51475;SDS011;37554;50.362;7.568;2023-04-01T00:06:37;1.67;;;0.60;;
51475;SDS011;37554;50.362;7.568;2023-04-01T00:09:02;1.30;;;0.50;;
51475;SDS011;37554;50.362;7.568;2023-04-01T00:11:28;1.35;;;0.45;;
51475;SDS011;37554;50.362;7.568;2023-04-01T00:13:54;2.30;;;0.68;;
51475;SDS011;37554;50.362;7.568;2023-04-01T00:16:21;1.02;;;0.47;;
51475;SDS011;37554;50.362;7.568;2023-04-01T00:18:47;1.60;;;0.50;;
51475;SDS011;37554;50.362;7.568;2023-04-01T00:21:14;1.65;;;0.60;;
51475;SDS011;37554;50.362;7.568;2023-04-01T00:23:40;0.93;;;0.30;;
51475;SDS011;37554;50.362;7.568;2023-04-01T00:26:06;1.67;;;0.47;;
51475;SDS011;37554;50.362;7.568;2023-04-01T00:28:33;1.55;;;0.40;;
51475;SDS011;37554;50.362;7.568;2023-04-01T00:31:04;1.50;;;0.40;;
51475;SDS011;37554;50.362;7.568;2023-04-01T00:33:31;1.30;;;0.45;;
51475;SDS011;37554;50.362;7.568;2023-04-01T00:36:05;1.25;;;0.40;;
51475;SDS011;37554;50.362;7.568;2023-04-01T00:38:34;1.60;;;0.50;;
51475;SDS011;37554;50.362;7.568;2023-04-01T00:41:01;1.05;;;0.40;;
51475;SDS011;37554;50.362;7.568;2023-04-01T00:43:26;1.70;;;0.57;;
51475;SDS011;37554;50.362;7.568;2023-04-01T00:45:52;1.50;;;0.43;;
51475;SDS011;37554;50.362;7.568;2023-04-01T00:48:19;1.30;;;0.38;;
51475;SDS011;37554;50.362;7.568;2023-04-01T00:51:10;1.02;;;0.50;;
51475;SDS011;37554;50.362;7.568;2023-04-01T00:53:36;1.70;;;0.50;;
51475;SDS011;37554;50.362;7.568;2023-04-01T00:56:07;2.00;;;0.65;;
51475;SDS011;37554;50.362;7.568;2023-04-01T00:58:45;1.30;;;0.50;;
51475;SDS011;37554;50.362;7.568;2023-04-01T01:01:13;2.30;;;0.60;;
51475;SDS011;37554;50.362;7.568;2023-04-01T01:03:39;1.52;;;0.30;;
51475;SDS011;37554;50.362;7.568;2023-04-01T01:11:19;1.08;;;0.40;;
51475;SDS011;37554;50.362;7.568;2023-04-01T01:19:51;1.27;;;0.40;;
51475;SDS011;37554;50.362;7.568;2023-04-01T01:22:36;1.65;;;0.60;;
51475;SDS011;37554;50.362;7.568;2023-04-01T01:36:48;1.27;;;0.43;;
51475;SDS011;37554;50.362;7.568;2023-04-01T01:39:18;0.80;;;0.40;;
51475;SDS011;37554;50.362;7.568;2023-04-01T01:41:51;1.70;;;0.40;;
51475;SDS011;37554;50.362;7.568;2023-04-01T01:44:18;1.75;;;0.50;;
51475;SDS011;37554;50.362;7.568;2023-04-01T01:46:46;1.48;;;0.40;;
51475;SDS011;37554;50.362;7.568;2023-04-01T01:49:13;1.48;;;0.32;;
51475;SDS011;37554;50.362;7.568;2023-04-01T01:51:40;1.63;;;0.40;;
51475;SDS011;37554;50.362;7.568;2023-04-01T01:54:11;1.20;;;0.40;;
51475;SDS011;37554;50.362;7.568;2023-04-01T01:56:42;1.00;;;0.50;;
51475;SDS011;37554;50.362;7.568;2023-04-01T01:59:11;1.73;;;0.50;;
51475;SDS011;37554;50.362;7.568;2023-04-01T02:01:38;1.10;;;0.40;;
51475;SDS011;37554;50.362;7.568;2023-04-01T02:04:09;1.08;;;0.43;;
51475;SDS011;37554;50.362;7.568;2023-04-01T02:06:37;1.63;;;0.60;;
51475;SDS011;37554;50.362;7.568;2023-04-01T02:09:07;1.13;;;0.50;;
51475;SDS011;37554;50.362;7.568;2023-04-01T02:11:43;0.60;;;0.25;;
51475;SDS011;37554;50.362;7.568;2023-04-01T02:14:14;2.28;;;0.70;;
51475;SDS011;37554;50.362;7.568;2023-04-01T02:19:52;1.10;;;0.40;;
51475;SDS011;37554;50.362;7.568;2023-04-01T02:22:22;3.60;;;0.40;;
51475;SDS011;37554;50.362;7.568;2023-04-01T02:24:52;1.65;;;0.50;;
51475;SDS011;37554;50.362;7.568;2023-04-01T02:27:22;0.82;;;0.30;;
51475;SDS011;37554;50.362;7.568;2023-04-01T02:29:48;0.95;;;0.40;;
51475;SDS011;37554;50.362;7.568;2023-04-01T02:32:14;2.42;;;0.40;;
51475;SDS011;37554;50.362;7.568;2023-04-01T02:34:42;1.50;;;0.57;;
51475;SDS011;37554;50.362;7.568;2023-04-01T02:37:08;1.55;;;0.50;;
51475;SDS011;37554;50.362;7.568;2023-04-01T02:39:35;0.93;;;0.40;;
51475;SDS011;37554;50.362;7.568;2023-04-01T02:42:01;2.15;;;0.40;;
51475;SDS011;37554;50.362;7.568;2023-04-01T02:44:26;1.50;;;0.40;;
51475;SDS011;37554;50.362;7.568;2023-04-01T02:46:52;1.63;;;0.43;;
51475;SDS011;37554;50.362;7.568;2023-04-01T02:49:18;1.67;;;0.32;;
51475;SDS011;37554;50.362;7.568;2023-04-01T02:51:43;2.47;;;0.47;;
51475;SDS011;37554;50.362;7.568;2023-04-01T02:54:09;1.38;;;0.50;;
51475;SDS011;37554;50.362;7.568;2023-04-01T02:56:34;0.65;;;0.25;;
51475;SDS011;37554;50.362;7.568;2023-04-01T02:59:00;1.20;;;0.38;;
51475;SDS011;37554;50.362;7.568;2023-04-01T03:01:26;1.95;;;0.45;;
51475;SDS011;37554;50.362;7.568;2023-04-01T03:03:51;2.67;;;0.60;;
51475;SDS011;37554;50.362;7.568;2023-04-01T03:06:17;1.65;;;0.57;;
51475;SDS011;37554;50.362;7.568;2023-04-01T03:08:43;1.05;;;0.35;;
51475;SDS011;37554;50.362;7.568;2023-04-01T03:11:09;1.15;;;0.40;;
51475;SDS011;37554;50.362;7.568;2023-04-01T03:13:36;0.55;;;0.20;;
51475;SDS011;37554;50.362;7.568;2023-04-01T03:16:02;1.88;;;0.40;;
51475;SDS011;37554;50.362;7.568;2023-04-01T03:18:27;0.80;;;0.30;;
51475;SDS011;37554;50.362;7.568;2023-04-01T03:20:53;0.85;;;0.32;;
51475;SDS011;37554;50.362;7.568;2023-04-01T03:23:19;1.42;;;0.43;;
51475;SDS011;37554;50.362;7.568;2023-04-01T03:25:46;0.98;;;0.32;;
51475;SDS011;37554;50.362;7.568;2023-04-01T03:28:12;0.82;;;0.30;;
51475;SDS011;37554;50.362;7.568;2023-04-01T03:30:38;2.20;;;0.52;;
51475;SDS011;37554;50.362;7.568;2023-04-01T03:33:04;1.85;;;0.30;;
51475;SDS011;37554;50.362;7.568;2023-04-01T03:35:30;2.15;;;0.65;;
51475;SDS011;37554;50.362;7.568;2023-04-01T03:37:56;1.35;;;0.40;;
51475;SDS011;37554;50.362;7.568;2023-04-01T03:40:22;0.90;;;0.38;;
51475;SDS011;37554;50.362;7.568;2023-04-01T03:42:48;1.15;;;0.47;;
51475;SDS011;37554;50.362;7.568;2023-04-01T03:45:14;0.90;;;0.47;;
51475;SDS011;37554;50.362;7.568;2023-04-01T03:47:40;0.70;;;0.30;;
51475;SDS011;37554;50.362;7.568;2023-04-01T03:53:06;2.60;;;0.40;;
51475;SDS011;37554;50.362;7.568;2023-04-01T03:55:32;0.88;;;0.30;;
51475;SDS011;37554;50.362;7.568;2023-04-01T03:57:58;1.90;;;0.40;;
51475;SDS011;37554;50.362;7.568;2023-04-01T04:00:24;1.85;;;0.40;;
51475;SDS011;37554;50.362;7.568;2023-04-01T04:02:50;1.50;;;0.30;;
51475;SDS011;37554;50.362;7.568;2023-04-01T04:05:15;0.90;;;0.40;;
51475;SDS011;37554;50.362;7.568;2023-04-01T04:07:41;1.85;;;0.32;;
51475;SDS011;37554;50.362;7.568;2023-04-01T04:10:07;1.55;;;0.40;;
51475;SDS011;37554;50.362;7.568;2023-04-01T04:12:33;0.93;;;0.35;;
51475;SDS011;37554;50.362;7.568;2023-04-01T04:14:58;0.55;;;0.20;;
51475;SDS011;37554;50.362;7.568;2023-04-01T04:17:24;0.95;;;0.30;;
51475;SDS011;37554;50.362;7.568;2023-04-01T04:19:49;0.98;;;0.35;;
51475;SDS011;37554;50.362;7.568;2023-04-01T04:22:15;2.00;;;0.40;;
51475;SDS011;37554;50.362;7.568;2023-04-01T04:24:41;0.98;;;0.25;;
51475;SDS011;37554;50.362;7.568;2023-04-01T04:27:07;1.13;;;0.38;;
51475;SDS011;37554;50.362;7.568;2023-04-01T04:29:32;1.08;;;0.30;;
51475;SDS011;37554;50.362;7.568;2023-04-01T04:31:58;0.85;;;0.30;;
51475;SDS011;37554;50.362;7.568;2023-04-01T04:34:23;1.00;;;0.30;;
51475;SDS011;37554;50.362;7.568;2023-04-01T04:36:49;0.70;;;0.38;;
51475;SDS011;37554;50.362;7.568;2023-04-01T04:39:20;0.73;;;0.30;;
51475;SDS011;37554;50.362;7.568;2023-04-01T04:41:46;1.83;;;0.35;;
51475;SDS011;37554;50.362;7.568;2023-04-01T04:44:12;1.15;;;0.32;;
51475;SDS011;37554;50.362;7.568;2023-04-01T04:46:37;0.47;;;0.20;;
51475;SDS011;37554;50.362;7.568;2023-04-01T04:49:04;1.00;;;0.20;;
51475;SDS011;37554;50.362;7.568;2023-04-01T04:51:30;2.03;;;0.30;;
51475;SDS011;37554;50.362;7.568;2023-04-01T04:53:59;0.90;;;0.28;;
51475;SDS011;37554;50.362;7.568;2023-04-01T04:56:25;1.67;;;0.40;;
51475;SDS011;37554;50.362;7.568;2023-04-01T04:58:51;1.90;;;0.30;;
51475;SDS011;37554;50.362;7.568;2023-04-01T05:01:17;1.20;;;0.30;;
51475;SDS011;37554;50.362;7.568;2023-04-01T05:03:43;0.88;;;0.20;;
51475;SDS011;37554;50.362;7.568;2023-04-01T05:06:10;0.68;;;0.20;;
51475;SDS011;37554;50.362;7.568;2023-04-01T05:08:38;1.38;;;0.30;;
51475;SDS011;37554;50.362;7.568;2023-04-01T05:11:06;0.82;;;0.30;;
51475;SDS011;37554;50.362;7.568;2023-04-01T05:13:36;1.38;;;0.45;;
51475;SDS011;37554;50.362;7.568;2023-04-01T05:16:02;0.40;;;0.20;;
51475;SDS011;37554;50.362;7.568;2023-04-01T05:18:28;0.73;;;0.20;;
51475;SDS011;37554;50.362;7.568;2023-04-01T05:20:54;0.75;;;0.20;;
51475;SDS011;37554;50.362;7.568;2023-04-01T05:23:21;0.80;;;0.30;;
51475;SDS011;37554;50.362;7.568;2023-04-01T05:25:47;1.33;;;0.17;;
51475;SDS011;37554;50.362;7.568;2023-04-01T05:28:15;0.82;;;0.30;;
51475;SDS011;37554;50.362;7.568;2023-04-01T05:30:41;0.60;;;0.25;;
51475;SDS011;37554;50.362;7.568;2023-04-01T05:33:07;4.80;;;0.38;;
51475;SDS011;37554;50.362;7.568;2023-04-01T05:35:33;0.32;;;0.20;;
51475;SDS011;37554;50.362;7.568;2023-04-01T05:37:59;0.25;;;0.10;;
51475;SDS011;37554;50.362;7.568;2023-04-01T05:40:25;1.38;;;0.30;;
51475;SDS011;37554;50.362;7.568;2023-04-01T05:42:50;0.50;;;0.30;;
51475;SDS011;37554;50.362;7.568;2023-04-01T05:45:16;0.57;;;0.20;;
51475;SDS011;37554;50.362;7.568;2023-04-01T05:47:43;0.82;;;0.20;;
51475;SDS011;37554;50.362;7.568;2023-04-01T05:50:09;0.30;;;0.13;;
51475;SDS011;37554;50.362;7.568;2023-04-01T05:52:36;0.47;;;0.10;;
51475;SDS011;37554;50.362;7.568;2023-04-01T06:00:40;0.88;;;0.20;;
51475;SDS011;37554;50.362;7.568;2023-04-01T06:03:05;0.82;;;0.20;;
51475;SDS011;37554;50.362;7.568;2023-04-01T06:05:36;0.15;;;0.10;;
51475;SDS011;37554;50.362;7.568;2023-04-01T06:08:11;0.55;;;0.20;;
51475;SDS011;37554;50.362;7.568;2023-04-01T06:16:59;0.40;;;0.10;;
51475;SDS011;37554;50.362;7.568;2023-04-01T06:19:59;0.35;;;0.20;;
51475;SDS011;37554;50.362;7.568;2023-04-01T06:23:01;0.45;;;0.20;;
51475;SDS011;37554;50.362;7.568;2023-04-01T06:42:50;1.05;;;0.20;;
51475;SDS011;37554;50.362;7.568;2023-04-01T06:54:34;0.35;;;0.10;;
51475;SDS011;37554;50.362;7.568;2023-04-01T06:57:28;0.30;;;0.10;;
51475;SDS011;37554;50.362;7.568;2023-04-01T07:00:19;0.50;;;0.20;;
51475;SDS011;37554;50.362;7.568;2023-04-01T07:02:54;0.70;;;0.20;;
51475;SDS011;37554;50.362;7.568;2023-04-01T07:05:42;0.15;;;0.10;;
51475;SDS011;37554;50.362;7.568;2023-04-01T07:08:10;0.25;;;0.10;;
51475;SDS011;37554;50.362;7.568;2023-04-01T07:10:43;0.30;;;0.10;;
51475;SDS011;37554;50.362;7.568;2023-04-01T07:13:14;0.28;;;0.10;;
51475;SDS011;37554;50.362;7.568;2023-04-01T07:15:57;0.20;;;0.10;;
51475;SDS011;37554;50.362;7.568;2023-04-01T07:18:32;0.30;;;0.10;;
51475;SDS011;37554;50.362;7.568;2023-04-01T07:21:03;0.50;;;0.10;;
51475;SDS011;37554;50.362;7.568;2023-04-01T07:23:38;0.20;;;0.10;;
51475;SDS011;37554;50.362;7.568;2023-04-01T07:26:18;0.03;;;0.03;;
51475;SDS011;37554;50.362;7.568;2023-04-01T07:28:48;0.32;;;0.10;;
51475;SDS011;37554;50.362;7.568;2023-04-01T07:31:24;0.90;;;0.10;;
51475;SDS011;37554;50.362;7.568;2023-04-01T07:36:42;0.25;;;0.10;;
51475;SDS011;37554;50.362;7.568;2023-04-01T07:41:54;0.20;;;0.10;;
51475;SDS011;37554;50.362;7.568;2023-04-01T07:44:27;0.40;;;0.20;;
51475;SDS011;37554;50.362;7.568;2023-04-01T07:50:02;0.30;;;0.10;;
51475;SDS011;37554;50.362;7.568;2023-04-01T07:55:16;0.40;;;0.10;;
51475;SDS011;37554;50.362;7.568;2023-04-01T07:57:53;0.50;;;0.10;;
51475;SDS011;37554;50.362;7.568;2023-04-01T08:00:26;0.20;;;0.03;;
51475;SDS011;37554;50.362;7.568;2023-04-01T08:05:55;0.20;;;0.10;;
51475;SDS011;37554;50.362;7.568;2023-04-01T08:14:00;0.32;;;0.20;;
51475;SDS011;37554;50.362;7.568;2023-04-01T08:17:02;0.52;;;0.10;;
51475;SDS011;37554;50.362;7.568;2023-04-01T08:19:48;0.52;;;0.17;;
51475;SDS011;37554;50.362;7.568;2023-04-01T08:22:29;0.33;;;0.10;;
51475;SDS011;37554;50.362;7.568;2023-04-01T08:25:02;0.10;;;0.10;;
51475;SDS011;37554;50.362;7.568;2023-04-01T08:27:43;0.10;;;0.10;;
51475;SDS011;37554;50.362;7.568;2023-04-01T08:30:27;0.35;;;0.10;;
51475;SDS011;37554;50.362;7.568;2023-04-01T08:33:17;0.10;;;0.10;;
51475;SDS011;37554;50.362;7.568;2023-04-01T08:36:08;0.32;;;0.10;;
51475;SDS011;37554;50.362;7.568;2023-04-01T08:38:51;0.10;;;0.03;;
51475;SDS011;37554;50.362;7.568;2023-04-01T08:53:24;0.30;;;0.10;;
51475;SDS011;37554;50.362;7.568;2023-04-01T08:56:15;0.10;;;0.10;;
51475;SDS011;37554;50.362;7.568;2023-04-01T08:59:04;0.13;;;0.10;;
51475;SDS011;37554;50.362;7.568;2023-04-01T09:06:40;0.52;;;0.10;;
51475;SDS011;37554;50.362;7.568;2023-04-01T09:21:04;0.13;;;0.10;;
51475;SDS011;37554;50.362;7.568;2023-04-01T09:27:05;0.20;;;0.20;;
51475;SDS011;37554;50.362;7.568;2023-04-01T09:29:45;0.10;;;0.10;;
51475;SDS011;37554;50.362;7.568;2023-04-01T09:37:53;0.05;;;0.05;;
51475;SDS011;37554;50.362;7.568;2023-04-01T09:43:06;0.10;;;0.10;;
51475;SDS011;37554;50.362;7.568;2023-04-01T09:45:57;0.20;;;0.10;;
51475;SDS011;37554;50.362;7.568;2023-04-01T09:48:46;0.25;;;0.25;;
51475;SDS011;37554;50.362;7.568;2023-04-01T09:51:31;0.22;;;0.10;;
51475;SDS011;37554;50.362;7.568;2023-04-01T09:54:08;0.35;;;0.20;;
51475;SDS011;37554;50.362;7.568;2023-04-01T09:56:58;0.20;;;0.10;;
51475;SDS011;37554;50.362;7.568;2023-04-01T10:21:28;0.43;;;0.10;;
51475;SDS011;37554;50.362;7.568;2023-04-01T10:32:42;0.68;;;0.20;;
51475;SDS011;37554;50.362;7.568;2023-04-01T10:53:14;0.47;;;0.30;;
51475;SDS011;37554;50.362;7.568;2023-04-01T11:31:25;0.43;;;0.30;;
51475;SDS011;37554;50.362;7.568;2023-04-01T11:39:53;0.55;;;0.30;;
51475;SDS011;37554;50.362;7.568;2023-04-01T11:42:49;0.30;;;0.30;;
51475;SDS011;37554;50.362;7.568;2023-04-01T11:53:10;0.20;;;0.20;;
51475;SDS011;37554;50.362;7.568;2023-04-01T11:55:59;0.30;;;0.30;;
51475;SDS011;37554;50.362;7.568;2023-04-01T12:02:02;1.95;;;0.20;;
51475;SDS011;37554;50.362;7.568;2023-04-01T12:04:46;0.32;;;0.28;;
51475;SDS011;37554;50.362;7.568;2023-04-01T12:10:02;0.43;;;0.30;;
51475;SDS011;37554;50.362;7.568;2023-04-01T12:17:58;0.60;;;0.30;;
51475;SDS011;37554;50.362;7.568;2023-04-01T12:21:09;1.48;;;0.20;;
51475;SDS011;37554;50.362;7.568;2023-04-01T12:24:05;0.52;;;0.40;;
51475;SDS011;37554;50.362;7.568;2023-04-01T12:32:35;0.40;;;0.32;;
51475;SDS011;37554;50.362;7.568;2023-04-01T12:50:16;0.30;;;0.20;;
51475;SDS011;37554;50.362;7.568;2023-04-01T13:06:26;0.10;;;0.10;;
51475;SDS011;37554;50.362;7.568;2023-04-01T13:25:31;0.40;;;0.20;;
51475;SDS011;37554;50.362;7.568;2023-04-01T13:28:18;0.10;;;0.10;;
51475;SDS011;37554;50.362;7.568;2023-04-01T13:44:56;0.10;;;0.10;;
51475;SDS011;37554;50.362;7.568;2023-04-01T13:55:33;0.20;;;0.20;;
51475;SDS011;37554;50.362;7.568;2023-04-01T13:58:19;0.10;;;0.10;;
51475;SDS011;37554;50.362;7.568;2023-04-01T14:06:28;0.08;;;0.08;;
51475;SDS011;37554;50.362;7.568;2023-04-01T14:11:58;0.10;;;0.10;;
51475;SDS011;37554;50.362;7.568;2023-04-01T14:17:56;0.43;;;0.15;;
51475;SDS011;37554;50.362;7.568;2023-04-01T14:24:08;0.65;;;0.17;;
51475;SDS011;37554;50.362;7.568;2023-04-01T14:35:12;0.10;;;0.10;;
51475;SDS011;37554;50.362;7.568;2023-04-01T14:37:58;0.20;;;0.20;;
51475;SDS011;37554;50.362;7.568;2023-04-01T14:48:23;0.00;;;0.00;;
51475;SDS011;37554;50.362;7.568;2023-04-01T14:50:57;0.10;;;0.10;;
51475;SDS011;37554;50.362;7.568;2023-04-01T14:53:34;0.10;;;0.10;;
51475;SDS011;37554;50.362;7.568;2023-04-01T14:56:07;0.20;;;0.10;;
51475;SDS011;37554;50.362;7.568;2023-04-01T15:06:45;0.08;;;0.08;;
51475;SDS011;37554;50.362;7.568;2023-04-01T15:09:41;0.10;;;0.10;;
51475;SDS011;37554;50.362;7.568;2023-04-01T15:12:29;0.20;;;0.20;;
51475;SDS011;37554;50.362;7.568;2023-04-01T15:18:05;0.10;;;0.10;;
51475;SDS011;37554;50.362;7.568;2023-04-01T15:26:33;0.10;;;0.10;;
51475;SDS011;37554;50.362;7.568;2023-04-01T15:29:26;0.17;;;0.17;;
51475;SDS011;37554;50.362;7.568;2023-04-01T15:32:02;0.08;;;0.00;;
51475;SDS011;37554;50.362;7.568;2023-04-01T15:37:40;0.20;;;0.10;;
51475;SDS011;37554;50.362;7.568;2023-04-01T15:40:33;0.10;;;0.10;;
51475;SDS011;37554;50.362;7.568;2023-04-01T15:49:32;0.10;;;0.10;;
51475;SDS011;37554;50.362;7.568;2023-04-01T15:57:28;0.50;;;0.20;;
51475;SDS011;37554;50.362;7.568;2023-04-01T16:00:24;0.45;;;0.10;;
51475;SDS011;37554;50.362;7.568;2023-04-01T16:11:16;0.20;;;0.20;;
51475;SDS011;37554;50.362;7.568;2023-04-01T16:13:55;0.32;;;0.20;;
51475;SDS011;37554;50.362;7.568;2023-04-01T16:23:02;0.20;;;0.20;;
51475;SDS011;37554;50.362;7.568;2023-04-01T16:25:45;0.30;;;0.30;;
51475;SDS011;37554;50.362;7.568;2023-04-01T16:28:36;0.20;;;0.20;;
51475;SDS011;37554;50.362;7.568;2023-04-01T16:31:15;0.50;;;0.20;;
51475;SDS011;37554;50.362;7.568;2023-04-01T16:34:01;0.20;;;0.20;;
51475;SDS011;37554;50.362;7.568;2023-04-01T16:41:57;0.30;;;0.20;;
51475;SDS011;37554;50.362;7.568;2023-04-01T16:44:57;0.30;;;0.30;;
51475;SDS011;37554;50.362;7.568;2023-04-01T16:48:01;0.30;;;0.30;;
51475;SDS011;37554;50.362;7.568;2023-04-01T16:50:58;0.20;;;0.20;;
51475;SDS011;37554;50.362;7.568;2023-04-01T16:53:42;0.50;;;0.30;;
51475;SDS011;37554;50.362;7.568;2023-04-01T17:04:38;0.30;;;0.25;;
51475;SDS011;37554;50.362;7.568;2023-04-01T17:15:12;0.57;;;0.45;;
51475;SDS011;37554;50.362;7.568;2023-04-01T17:17:45;0.68;;;0.30;;
51475;SDS011;37554;50.362;7.568;2023-04-01T17:20:46;0.40;;;0.40;;
51475;SDS011;37554;50.362;7.568;2023-04-01T17:23:39;0.50;;;0.30;;
51475;SDS011;37554;50.362;7.568;2023-04-01T17:26:20;0.55;;;0.40;;
51475;SDS011;37554;50.362;7.568;2023-04-01T17:28:56;0.52;;;0.30;;
51475;SDS011;37554;50.362;7.568;2023-04-01T17:31:50;0.28;;;0.28;;
51475;SDS011;37554;50.362;7.568;2023-04-01T17:39:55;0.17;;;0.17;;
51475;SDS011;37554;50.362;7.568;2023-04-01T17:42:39;0.30;;;0.20;;
51475;SDS011;37554;50.362;7.568;2023-04-01T17:59:31;0.20;;;0.20;;
51475;SDS011;37554;50.362;7.568;2023-04-01T18:16:08;0.20;;;0.20;;
51475;SDS011;37554;50.362;7.568;2023-04-01T18:26:31;0.30;;;0.20;;
51475;SDS011;37554;50.362;7.568;2023-04-01T18:29:02;0.28;;;0.10;;
51475;SDS011;37554;50.362;7.568;2023-04-01T18:31:38;0.20;;;0.20;;
51475;SDS011;37554;50.362;7.568;2023-04-01T18:34:13;0.10;;;0.10;;
51475;SDS011;37554;50.362;7.568;2023-04-01T18:39:33;0.30;;;0.20;;
51475;SDS011;37554;50.362;7.568;2023-04-01T18:44:51;0.22;;;0.22;;
51475;SDS011;37554;50.362;7.568;2023-04-01T18:47:30;0.20;;;0.20;;
51475;SDS011;37554;50.362;7.568;2023-04-01T18:50:15;0.40;;;0.40;;
51475;SDS011;37554;50.362;7.568;2023-04-01T18:53:09;0.40;;;0.40;;
51475;SDS011;37554;50.362;7.568;2023-04-01T18:55:47;0.30;;;0.30;;
51475;SDS011;37554;50.362;7.568;2023-04-01T19:07:00;0.93;;;0.50;;
51475;SDS011;37554;50.362;7.568;2023-04-01T19:09:43;0.50;;;0.50;;
51475;SDS011;37554;50.362;7.568;2023-04-01T19:14:52;0.93;;;0.60;;
51475;SDS011;37554;50.362;7.568;2023-04-01T19:17:52;0.77;;;0.50;;
51475;SDS011;37554;50.362;7.568;2023-04-01T19:23:47;0.50;;;0.50;;
51475;SDS011;37554;50.362;7.568;2023-04-01T19:26:35;0.50;;;0.50;;
51475;SDS011;37554;50.362;7.568;2023-04-01T19:29:30;0.63;;;0.60;;
51475;SDS011;37554;50.362;7.568;2023-04-01T19:34:53;0.52;;;0.40;;
51475;SDS011;37554;50.362;7.568;2023-04-01T19:42:58;0.52;;;0.52;;
51475;SDS011;37554;50.362;7.568;2023-04-01T19:45:47;1.10;;;0.50;;
51475;SDS011;37554;50.362;7.568;2023-04-01T19:48:31;0.47;;;0.43;;
51475;SDS011;37554;50.362;7.568;2023-04-01T19:51:10;0.57;;;0.55;;
51475;SDS011;37554;50.362;7.568;2023-04-01T19:59:54;0.60;;;0.55;;
51475;SDS011;37554;50.362;7.568;2023-04-01T20:04:55;0.60;;;0.57;;
51475;SDS011;37554;50.362;7.568;2023-04-01T20:07:30;1.40;;;0.40;;
51475;SDS011;37554;50.362;7.568;2023-04-01T20:10:22;0.60;;;0.60;;
51475;SDS011;37554;50.362;7.568;2023-04-01T20:15:57;0.75;;;0.50;;
51475;SDS011;37554;50.362;7.568;2023-04-01T20:18:33;0.90;;;0.50;;
51475;SDS011;37554;50.362;7.568;2023-04-01T20:23:50;0.50;;;0.47;;
51475;SDS011;37554;50.362;7.568;2023-04-01T20:29:04;0.75;;;0.52;;
51475;SDS011;37554;50.362;7.568;2023-04-01T20:31:57;0.70;;;0.68;;
51475;SDS011;37554;50.362;7.568;2023-04-01T20:34:43;0.57;;;0.45;;
51475;SDS011;37554;50.362;7.568;2023-04-01T20:37:37;0.68;;;0.50;;
51475;SDS011;37554;50.362;7.568;2023-04-01T20:46:04;0.57;;;0.57;;
51475;SDS011;37554;50.362;7.568;2023-04-01T20:51:24;0.40;;;0.40;;
51475;SDS011;37554;50.362;7.568;2023-04-01T20:54:15;0.35;;;0.30;;
51475;SDS011;37554;50.362;7.568;2023-04-01T20:57:05;0.52;;;0.50;;
51475;SDS011;37554;50.362;7.568;2023-04-01T21:05:51;0.50;;;0.50;;
51475;SDS011;37554;50.362;7.568;2023-04-01T21:13:56;0.73;;;0.40;;
51475;SDS011;37554;50.362;7.568;2023-04-01T21:17:00;0.63;;;0.30;;
51475;SDS011;37554;50.362;7.568;2023-04-01T21:22:35;0.40;;;0.30;;
51475;SDS011;37554;50.362;7.568;2023-04-01T21:28:26;1.55;;;0.30;;
51475;SDS011;37554;50.362;7.568;2023-04-01T21:36:38;0.50;;;0.32;;
51475;SDS011;37554;50.362;7.568;2023-04-01T21:44:46;0.20;;;0.20;;
51475;SDS011;37554;50.362;7.568;2023-04-01T21:50:45;0.20;;;0.20;;
51475;SDS011;37554;50.362;7.568;2023-04-01T22:04:50;0.38;;;0.20;;
51475;SDS011;37554;50.362;7.568;2023-04-01T22:07:38;0.30;;;0.20;;
51475;SDS011;37554;50.362;7.568;2023-04-01T22:10:19;0.38;;;0.30;;
51475;SDS011;37554;50.362;7.568;2023-04-01T22:13:16;0.20;;;0.20;;
51475;SDS011;37554;50.362;7.568;2023-04-01T22:16:11;0.30;;;0.30;;
51475;SDS011;37554;50.362;7.568;2023-04-01T22:21:24;0.30;;;0.20;;
51475;SDS011;37554;50.362;7.568;2023-04-01T22:24:04;0.20;;;0.20;;
51475;SDS011;37554;50.362;7.568;2023-04-01T22:26:47;0.65;;;0.20;;
51475;SDS011;37554;50.362;7.568;2023-04-01T22:47:45;0.82;;;0.20;;
51475;SDS011;37554;50.362;7.568;2023-04-01T22:56:14;0.20;;;0.20;;
51475;SDS011;37554;50.362;7.568;2023-04-01T22:58:48;0.30;;;0.20;;
51475;SDS011;37554;50.362;7.568;2023-04-01T23:01:28;0.20;;;0.20;;
51475;SDS011;37554;50.362;7.568;2023-04-01T23:03:59;0.10;;;0.10;;
51475;SDS011;37554;50.362;7.568;2023-04-01T23:06:31;1.02;;;0.40;;
51475;SDS011;37554;50.362;7.568;2023-04-01T23:11:50;0.10;;;0.10;;
51475;SDS011;37554;50.362;7.568;2023-04-01T23:14:36;0.43;;;0.20;;
51475;SDS011;37554;50.362;7.568;2023-04-01T23:19:56;0.60;;;0.30;;
51475;SDS011;37554;50.362;7.568;2023-04-01T23:28:36;0.38;;;0.20;;
51475;SDS011;37554;50.362;7.568;2023-04-01T23:32:10;0.20;;;0.20;;
51475;SDS011;37554;50.362;7.568;2023-04-01T23:36:38;0.68;;;0.20;;
51475;SDS011;37554;50.362;7.568;2023-04-01T23:42:21;0.20;;;0.10;;
51475;SDS011;37554;50.362;7.568;2023-04-01T23:44:50;0.10;;;0.10;;
51475;SDS011;37554;50.362;7.568;2023-04-01T23:47:38;0.28;;;0.20;;
51475;SDS011;37554;50.362;7.568;2023-04-01T23:52:40;0.32;;;0.30;;
51475;SDS011;37554;50.362;7.568;2023-04-01T23:55:12;0.20;;;0.20;;
51475;SDS011;37554;50.362;7.568;2023-04-01T23:57:42;0.20;;;0.20;;
